Time;durP1;ratioP1;P1;durP2;ratioP2;P2;SDS_P1;SDS_P2;PMS_P1;PMS_P2;Temp;Humidity;BMP_temperature;BMP_pressure;BME280_temperature;BME280_humidity;BME280_pressure;Samples;Min_cycle;Max_cycle;Signal;HPM_P1;HPM_P2
2021/04/29 00:01:15;;;;;;;10.77;7.93;;;;;;;;;;5085484;28;20708;-70
2021/04/29 00:03:43;;;;;;;10.33;8.40;;;;;;;;;;5084096;28;20656;-69
2021/04/29 00:06:09;;;;;;;12.80;8.67;;;;;;;;;;5085506;28;20543;-69
2021/04/29 00:08:35;;;;;;;12.17;8.80;;;;;;;;;;5077918;28;20185;-70
2021/04/29 00:11:00;;;;;;;10.43;8.00;;;;;;;;;;5087628;28;20245;-69
2021/04/29 00:13:25;;;;;;;11.53;7.77;;;;;;;;;;5081523;28;20649;-71
2021/04/29 00:15:51;;;;;;;13.00;8.80;;;;;;;;;;5087444;28;20179;-71
2021/04/29 00:18:16;;;;;;;13.10;10.00;;;;;;;;;;5086323;28;20236;-69
2021/04/29 00:20:41;;;;;;;12.07;9.17;;;;;;;;;;5086130;28;20177;-69
2021/04/29 00:23:07;;;;;;;14.63;8.50;;;;;;;;;;5085236;28;20204;-71
2021/04/29 00:25:32;;;;;;;13.50;8.90;;;;;;;;;;5083207;28;20184;-69
2021/04/29 00:27:57;;;;;;;10.43;8.10;;;;;;;;;;5089969;28;20168;-70
2021/04/29 00:30:22;;;;;;;12.60;8.40;;;;;;;;;;5084416;28;20196;-68
2021/04/29 00:32:48;;;;;;;12.13;9.17;;;;;;;;;;5085388;28;20200;-69
2021/04/29 00:35:13;;;;;;;20.43;9.87;;;;;;;;;;5082191;28;20207;-70
2021/04/29 00:37:38;;;;;;;10.17;8.47;;;;;;;;;;5087307;28;20237;-68
2021/04/29 00:40:04;;;;;;;13.43;8.73;;;;;;;;;;5081685;28;20234;-68
2021/04/29 00:42:29;;;;;;;12.20;8.57;;;;;;;;;;5085523;28;20213;-69
2021/04/29 00:44:55;;;;;;;11.93;8.10;;;;;;;;;;5085452;28;20174;-69
2021/04/29 00:47:20;;;;;;;10.80;8.40;;;;;;;;;;5085575;28;20191;-69
2021/04/29 00:49:45;;;;;;;12.73;9.17;;;;;;;;;;5087483;28;20192;-69
2021/04/29 00:52:10;;;;;;;10.30;8.23;;;;;;;;;;5075207;28;20217;-69
2021/04/29 00:54:35;;;;;;;13.93;8.83;;;;;;;;;;5089103;28;20180;-71
2021/04/29 00:57:01;;;;;;;10.90;8.27;;;;;;;;;;5091589;28;20237;-70
2021/04/29 00:59:26;;;;;;;12.23;8.70;;;;;;;;;;5087730;28;20183;-70
2021/04/29 01:01:55;;;;;;;11.37;8.30;;;;;;;;;;5086582;28;20266;-70
2021/04/29 01:04:31;;;;;;;12.40;8.73;;;;;;;;;;5085446;28;20180;-69
2021/04/29 01:07:01;;;;;;;11.37;8.63;;;;;;;;;;5080714;28;20224;-72
2021/04/29 01:09:52;;;;;;;11.13;9.33;;;;;;;;;;5087413;28;20192;-70
2021/04/29 01:12:23;;;;;;;14.87;9.17;;;;;;;;;;5077500;28;20238;-70
2021/04/29 01:14:50;;;;;;;12.70;8.87;;;;;;;;;;5083205;28;20189;-70
2021/04/29 01:17:15;;;;;;;11.57;9.40;;;;;;;;;;5082274;28;20180;-70
2021/04/29 01:19:42;;;;;;;13.60;10.17;;;;;;;;;;5081145;28;20249;-70
2021/04/29 01:22:08;;;;;;;14.47;9.73;;;;;;;;;;5081450;28;20215;-70
2021/04/29 01:24:39;;;;;;;10.13;8.70;;;;;;;;;;5083972;28;20184;-70
2021/04/29 01:27:04;;;;;;;13.10;9.67;;;;;;;;;;5089558;28;20211;-69
2021/04/29 01:29:31;;;;;;;13.73;8.87;;;;;;;;;;5084600;28;20204;-70
2021/04/29 01:31:57;;;;;;;12.07;9.47;;;;;;;;;;5084859;28;20608;-70
2021/04/29 01:34:23;;;;;;;13.30;10.60;;;;;;;;;;5081012;28;20176;-70
2021/04/29 01:36:49;;;;;;;12.50;8.90;;;;;;;;;;5086907;28;20188;-70
2021/04/29 01:39:15;;;;;;;15.77;9.87;;;;;;;;;;5079031;28;20211;-70
2021/04/29 01:41:43;;;;;;;13.10;10.10;;;;;;;;;;5080055;28;20217;-70
2021/04/29 01:44:09;;;;;;;12.07;9.67;;;;;;;;;;5082460;28;20184;-70
2021/04/29 01:46:35;;;;;;;12.83;10.10;;;;;;;;;;5082301;28;20191;-70
2021/04/29 01:49:01;;;;;;;13.77;10.23;;;;;;;;;;5081659;28;20200;-69
2021/04/29 01:51:26;;;;;;;13.03;9.60;;;;;;;;;;5082783;28;20615;-70
2021/04/29 01:53:52;;;;;;;19.57;10.37;;;;;;;;;;5084890;28;20192;-70
2021/04/29 01:56:18;;;;;;;15.00;10.00;;;;;;;;;;5085159;28;20194;-69
2021/04/29 01:58:43;;;;;;;13.77;10.67;;;;;;;;;;5080066;28;20178;-69
2021/04/29 02:01:08;;;;;;;13.47;10.40;;;;;;;;;;5082972;28;20621;-69
2021/04/29 02:03:33;;;;;;;13.47;9.80;;;;;;;;;;5080707;28;20219;-69
2021/04/29 02:05:58;;;;;;;12.23;10.17;;;;;;;;;;5083475;28;20256;-70
2021/04/29 02:08:24;;;;;;;13.53;9.73;;;;;;;;;;5082478;28;20223;-70
2021/04/29 02:10:50;;;;;;;14.40;9.87;;;;;;;;;;5083552;28;20172;-70
2021/04/29 02:13:16;;;;;;;11.77;9.57;;;;;;;;;;5084257;28;20283;-70
2021/04/29 02:15:43;;;;;;;12.27;9.90;;;;;;;;;;5080806;28;20253;-69
2021/04/29 02:18:09;;;;;;;14.70;10.60;;;;;;;;;;5077090;28;20184;-70
2021/04/29 02:20:39;;;;;;;11.93;10.30;;;;;;;;;;5082993;28;20200;-69
2021/04/29 02:23:15;;;;;;;12.90;11.00;;;;;;;;;;5079795;28;20196;-70
2021/04/29 02:25:41;;;;;;;17.83;12.07;;;;;;;;;;5078838;28;20259;-70
2021/04/29 02:28:06;;;;;;;16.13;11.93;;;;;;;;;;5083233;28;20219;-71
2021/04/29 02:30:32;;;;;;;16.53;12.50;;;;;;;;;;5085114;28;20626;-71
2021/04/29 02:32:58;;;;;;;15.97;12.07;;;;;;;;;;5080611;28;20260;-70
2021/04/29 02:35:23;;;;;;;16.70;12.33;;;;;;;;;;5075737;28;20265;-70
2021/04/29 02:37:49;;;;;;;16.10;13.13;;;;;;;;;;5084109;28;20453;-71
2021/04/29 02:40:15;;;;;;;14.67;12.40;;;;;;;;;;5081477;28;20699;-71
2021/04/29 02:42:40;;;;;;;19.00;12.87;;;;;;;;;;5084225;28;20254;-71
2021/04/29 02:45:07;;;;;;;16.23;12.87;;;;;;;;;;5088476;28;20617;-69
2021/04/29 02:47:32;;;;;;;18.03;14.10;;;;;;;;;;5082037;28;20172;-70
2021/04/29 02:49:57;;;;;;;18.37;14.30;;;;;;;;;;5080415;28;20179;-70
2021/04/29 02:52:23;;;;;;;19.37;14.60;;;;;;;;;;5086151;28;20208;-70
2021/04/29 02:54:48;;;;;;;18.93;14.67;;;;;;;;;;5078627;28;20219;-70
2021/04/29 02:57:20;;;;;;;16.77;13.80;;;;;;;;;;5080871;28;20189;-70
2021/04/29 02:59:45;;;;;;;21.03;14.43;;;;;;;;;;5081451;28;20195;-71
2021/04/29 03:02:10;;;;;;;19.83;14.37;;;;;;;;;;5082052;28;20204;-71
2021/04/29 03:04:35;;;;;;;22.70;14.63;;;;;;;;;;5079107;28;20226;-70
2021/04/29 03:07:00;;;;;;;22.00;15.00;;;;;;;;;;5085829;28;20215;-71
2021/04/29 03:09:26;;;;;;;19.23;14.17;;;;;;;;;;5082859;28;20169;-70
2021/04/29 03:11:51;;;;;;;19.33;15.07;;;;;;;;;;5078393;28;20200;-70
2021/04/29 03:14:16;;;;;;;20.00;15.30;;;;;;;;;;5085074;28;20272;-70
2021/04/29 03:16:41;;;;;;;21.13;15.73;;;;;;;;;;5080518;28;20208;-70
2021/04/29 03:19:06;;;;;;;18.33;15.73;;;;;;;;;;5089044;28;20177;-71
2021/04/29 03:21:31;;;;;;;23.33;15.23;;;;;;;;;;5082232;28;20204;-71
2021/04/29 03:23:57;;;;;;;19.80;14.90;;;;;;;;;;5077407;28;20638;-71
2021/04/29 03:26:22;;;;;;;24.13;16.57;;;;;;;;;;5079236;28;20169;-71
2021/04/29 03:28:47;;;;;;;23.37;18.10;;;;;;;;;;5084358;28;20180;-70
2021/04/29 03:31:12;;;;;;;23.27;16.47;;;;;;;;;;5079154;28;20205;-71
2021/04/29 03:33:37;;;;;;;22.33;17.80;;;;;;;;;;5085074;28;20567;-71
2021/04/29 03:36:03;;;;;;;26.63;17.60;;;;;;;;;;5084123;28;20183;-71
2021/04/29 03:38:28;;;;;;;27.10;18.97;;;;;;;;;;5084122;28;20633;-70
2021/04/29 03:40:53;;;;;;;23.10;17.97;;;;;;;;;;5081263;28;20184;-71
2021/04/29 03:43:18;;;;;;;27.30;19.50;;;;;;;;;;5083325;28;20204;-70
2021/04/29 03:45:43;;;;;;;26.03;18.13;;;;;;;;;;5079676;28;20200;-71
2021/04/29 03:48:09;;;;;;;24.00;19.07;;;;;;;;;;5085792;28;20238;-72
2021/04/29 03:50:34;;;;;;;30.97;19.70;;;;;;;;;;5089094;28;20227;-71
2021/04/29 03:52:59;;;;;;;27.57;19.20;;;;;;;;;;5092706;28;20616;-71
2021/04/29 03:55:24;;;;;;;26.90;19.87;;;;;;;;;;5085384;28;20176;-71
2021/04/29 03:57:49;;;;;;;26.30;18.03;;;;;;;;;;5087575;28;20622;-71
2021/04/29 04:00:15;;;;;;;28.73;18.33;;;;;;;;;;5081374;28;20181;-71
2021/04/29 04:02:40;;;;;;;23.90;17.87;;;;;;;;;;5083168;28;20207;-70
2021/04/29 04:05:06;;;;;;;24.83;17.37;;;;;;;;;;5089155;28;20200;-70
2021/04/29 04:07:32;;;;;;;23.93;18.73;;;;;;;;;;5089953;28;20267;-70
2021/04/29 04:09:57;;;;;;;22.80;17.03;;;;;;;;;;5086206;28;20178;-70
2021/04/29 04:12:22;;;;;;;28.63;19.07;;;;;;;;;;5091428;28;20592;-70
2021/04/29 04:14:47;;;;;;;24.80;18.13;;;;;;;;;;5085133;28;20211;-71
2021/04/29 04:17:12;;;;;;;31.60;18.60;;;;;;;;;;5085273;28;20649;-70
2021/04/29 04:19:38;;;;;;;25.90;18.27;;;;;;;;;;5084657;28;20246;-71
2021/04/29 04:22:03;;;;;;;26.67;18.33;;;;;;;;;;5087063;28;20302;-71
2021/04/29 04:24:28;;;;;;;26.90;18.33;;;;;;;;;;5084064;28;20178;-71
2021/04/29 04:26:53;;;;;;;30.13;20.27;;;;;;;;;;5082229;28;20256;-70
2021/04/29 04:29:18;;;;;;;31.33;19.27;;;;;;;;;;5087480;28;20177;-71
2021/04/29 04:31:43;;;;;;;25.80;18.93;;;;;;;;;;5085332;28;20204;-70
2021/04/29 04:34:09;;;;;;;30.60;19.73;;;;;;;;;;5090866;28;20251;-71
2021/04/29 04:36:34;;;;;;;29.20;20.63;;;;;;;;;;5081704;28;20204;-70
2021/04/29 04:39:01;;;;;;;28.47;18.40;;;;;;;;;;5084484;28;20176;-71
2021/04/29 04:41:27;;;;;;;27.17;20.10;;;;;;;;;;5086095;28;20208;-70
2021/04/29 04:43:52;;;;;;;27.03;20.13;;;;;;;;;;5083791;28;20180;-71
2021/04/29 04:46:17;;;;;;;28.87;20.03;;;;;;;;;;5085400;28;20176;-71
2021/04/29 04:48:43;;;;;;;29.13;19.90;;;;;;;;;;5083286;28;20173;-70
2021/04/29 04:51:09;;;;;;;30.53;20.43;;;;;;;;;;5082239;28;20196;-70
2021/04/29 04:53:34;;;;;;;24.73;19.03;;;;;;;;;;5090114;28;20176;-70
2021/04/29 04:55:59;;;;;;;29.57;20.27;;;;;;;;;;5075556;28;20164;-69
2021/04/29 04:58:24;;;;;;;25.43;18.77;;;;;;;;;;5084779;28;20677;-70
2021/04/29 05:00:49;;;;;;;23.63;17.50;;;;;;;;;;5087170;28;20271;-70
2021/04/29 05:03:18;;;;;;;27.17;19.27;;;;;;;;;;5086962;28;20212;-69
2021/04/29 05:05:43;;;;;;;26.87;19.13;;;;;;;;;;5087238;28;20653;-71
2021/04/29 05:08:09;;;;;;;30.80;20.17;;;;;;;;;;5076926;28;20245;-70
2021/04/29 05:10:34;;;;;;;24.50;19.07;;;;;;;;;;5080820;28;20568;-69
2021/04/29 05:13:03;;;;;;;21.00;17.07;;;;;;;;;;5088184;28;20489;-70
2021/04/29 05:15:29;;;;;;;27.80;19.73;;;;;;;;;;5083234;28;20177;-70
2021/04/29 05:17:54;;;;;;;24.07;17.37;;;;;;;;;;5085050;28;20173;-71
2021/04/29 05:20:19;;;;;;;24.33;19.13;;;;;;;;;;5082027;28;20207;-70
2021/04/29 05:22:46;;;;;;;23.10;16.63;;;;;;;;;;5084180;28;20590;-71
2021/04/29 05:25:11;;;;;;;28.10;17.57;;;;;;;;;;5078003;28;20204;-70
2021/04/29 05:27:36;;;;;;;20.60;17.93;;;;;;;;;;5088332;28;20258;-70
2021/04/29 05:30:01;;;;;;;25.63;18.03;;;;;;;;;;5078075;28;20187;-69
2021/04/29 05:32:27;;;;;;;26.00;18.33;;;;;;;;;;5085311;28;20195;-70
2021/04/29 05:34:52;;;;;;;29.50;19.70;;;;;;;;;;5083856;28;20279;-69
2021/04/29 05:37:17;;;;;;;25.60;19.20;;;;;;;;;;5077075;28;20184;-70
2021/04/29 05:39:43;;;;;;;23.93;18.27;;;;;;;;;;5083603;28;20173;-70
2021/04/29 05:42:09;;;;;;;24.47;18.33;;;;;;;;;;5081090;28;20204;-70
2021/04/29 05:44:34;;;;;;;20.90;18.30;;;;;;;;;;5078496;28;20607;-72
2021/04/29 05:46:59;;;;;;;23.30;19.53;;;;;;;;;;5081657;28;20180;-70
2021/04/29 05:49:24;;;;;;;26.47;18.57;;;;;;;;;;5080927;28;20217;-70
2021/04/29 05:51:49;;;;;;;23.57;17.73;;;;;;;;;;5080924;28;20203;-70
2021/04/29 05:54:15;;;;;;;23.80;18.80;;;;;;;;;;5087388;28;20230;-70
2021/04/29 05:56:40;;;;;;;28.13;19.00;;;;;;;;;;5080313;28;20169;-71
2021/04/29 05:59:05;;;;;;;25.13;17.70;;;;;;;;;;5081233;28;20208;-70
2021/04/29 06:01:30;;;;;;;24.17;19.73;;;;;;;;;;5080857;28;20215;-70
2021/04/29 06:03:55;;;;;;;21.63;18.23;;;;;;;;;;5079221;28;20177;-70
2021/04/29 06:06:21;;;;;;;23.00;16.83;;;;;;;;;;5083454;28;20191;-69
2021/04/29 06:08:46;;;;;;;23.37;17.37;;;;;;;;;;5081794;28;20206;-71
2021/04/29 06:11:11;;;;;;;21.40;16.70;;;;;;;;;;5083326;28;20197;-70
2021/04/29 06:13:36;;;;;;;25.17;18.43;;;;;;;;;;5079144;28;20182;-70
2021/04/29 06:16:01;;;;;;;22.17;17.00;;;;;;;;;;5080465;28;20226;-70
2021/04/29 06:18:27;;;;;;;21.60;16.77;;;;;;;;;;5090356;28;20180;-69
2021/04/29 06:20:52;;;;;;;20.73;16.50;;;;;;;;;;5073430;28;20525;-70
2021/04/29 06:23:17;;;;;;;21.40;16.13;;;;;;;;;;5083001;28;20200;-69
2021/04/29 06:25:42;;;;;;;23.67;16.40;;;;;;;;;;5085674;28;20169;-69
2021/04/29 06:28:08;;;;;;;24.73;17.17;;;;;;;;;;5088369;28;20255;-70
2021/04/29 06:30:33;;;;;;;19.60;13.73;;;;;;;;;;5084464;28;20187;-70
2021/04/29 06:32:58;;;;;;;23.63;14.97;;;;;;;;;;5083245;28;20168;-70
2021/04/29 06:35:23;;;;;;;21.50;14.00;;;;;;;;;;5090324;28;20196;-70
2021/04/29 06:37:48;;;;;;;18.60;14.53;;;;;;;;;;5086489;28;20279;-70
2021/04/29 06:40:14;;;;;;;18.77;13.57;;;;;;;;;;5084128;28;20177;-70
2021/04/29 06:42:39;;;;;;;20.43;14.40;;;;;;;;;;5084855;28;20200;-70
2021/04/29 06:45:05;;;;;;;16.80;13.23;;;;;;;;;;5080359;28;20180;-70
2021/04/29 06:47:32;;;;;;;18.20;13.63;;;;;;;;;;5080837;28;20230;-70
2021/04/29 06:49:57;;;;;;;16.87;13.27;;;;;;;;;;5086256;28;20168;-70
2021/04/29 06:52:22;;;;;;;22.70;13.40;;;;;;;;;;5091628;28;20279;-70
2021/04/29 06:54:48;;;;;;;19.83;13.63;;;;;;;;;;5090434;28;20563;-69
2021/04/29 06:57:13;;;;;;;15.17;13.03;;;;;;;;;;5087440;28;20188;-70
2021/04/29 06:59:39;;;;;;;17.00;13.03;;;;;;;;;;5085259;28;20609;-70
2021/04/29 07:02:04;;;;;;;17.80;14.07;;;;;;;;;;5080588;28;20312;-69
2021/04/29 07:04:29;;;;;;;16.80;12.70;;;;;;;;;;5081782;28;20177;-69
2021/04/29 07:06:54;;;;;;;15.30;12.73;;;;;;;;;;5075241;28;20563;-68
2021/04/29 07:09:19;;;;;;;16.70;12.83;;;;;;;;;;5078412;28;20650;-69
2021/04/29 07:11:44;;;;;;;18.47;13.07;;;;;;;;;;5088644;28;20208;-69
2021/04/29 07:14:10;;;;;;;14.70;12.10;;;;;;;;;;5085668;28;20638;-69
2021/04/29 07:16:35;;;;;;;15.27;12.47;;;;;;;;;;5082409;28;20259;-69
2021/04/29 07:19:00;;;;;;;16.37;11.87;;;;;;;;;;5084254;28;20255;-70
2021/04/29 07:21:25;;;;;;;18.60;12.37;;;;;;;;;;5082494;28;20345;-68
2021/04/29 07:23:50;;;;;;;15.17;12.97;;;;;;;;;;5085804;28;20259;-70
2021/04/29 07:26:16;;;;;;;21.13;13.70;;;;;;;;;;5085398;28;20173;-69
2021/04/29 07:28:42;;;;;;;15.33;12.30;;;;;;;;;;5090467;28;20180;-69
2021/04/29 07:31:08;;;;;;;15.27;12.47;;;;;;;;;;5085606;28;20197;-70
2021/04/29 07:33:33;;;;;;;18.07;12.83;;;;;;;;;;5085422;28;20176;-70
2021/04/29 07:35:58;;;;;;;16.60;12.60;;;;;;;;;;5086448;28;20202;-70
2021/04/29 07:38:23;;;;;;;17.87;12.30;;;;;;;;;;5086355;28;20604;-70
2021/04/29 07:40:48;;;;;;;14.70;12.80;;;;;;;;;;5081928;28;20642;-69
2021/04/29 07:43:14;;;;;;;18.10;12.27;;;;;;;;;;5086785;28;20619;-70
2021/04/29 07:45:40;;;;;;;16.93;12.10;;;;;;;;;;5083763;28;20234;-69
2021/04/29 07:48:05;;;;;;;15.37;11.93;;;;;;;;;;5084843;28;20211;-70
2021/04/29 07:50:31;;;;;;;15.47;11.90;;;;;;;;;;5087732;28;20544;-70
2021/04/29 07:52:57;;;;;;;16.87;12.83;;;;;;;;;;5081144;28;20199;-69
2021/04/29 07:55:22;;;;;;;17.63;13.10;;;;;;;;;;5082555;28;20177;-69
2021/04/29 07:57:48;;;;;;;15.83;12.50;;;;;;;;;;5088003;28;20189;-70
2021/04/29 08:00:13;;;;;;;15.13;11.93;;;;;;;;;;5081443;28;20234;-69
2021/04/29 08:02:41;;;;;;;16.93;12.67;;;;;;;;;;5085817;28;20282;-70
2021/04/29 08:05:07;;;;;;;20.97;12.77;;;;;;;;;;5076548;28;20169;-70
2021/04/29 08:07:32;;;;;;;18.23;13.23;;;;;;;;;;5088291;28;20682;-70
2021/04/29 08:09:57;;;;;;;17.17;13.47;;;;;;;;;;5078826;28;20192;-70
2021/04/29 08:12:22;;;;;;;14.90;12.53;;;;;;;;;;5078993;28;20196;-70
2021/04/29 08:14:48;;;;;;;15.17;12.73;;;;;;;;;;5082058;28;20319;-69
2021/04/29 08:17:13;;;;;;;15.93;11.80;;;;;;;;;;5086218;28;20187;-70
2021/04/29 08:19:38;;;;;;;16.93;13.57;;;;;;;;;;5078416;28;20189;-70
2021/04/29 08:22:04;;;;;;;16.33;12.53;;;;;;;;;;5081334;28;20698;-69
2021/04/29 08:24:29;;;;;;;15.67;12.50;;;;;;;;;;5081715;28;20207;-70
2021/04/29 08:26:55;;;;;;;17.57;12.63;;;;;;;;;;5080231;28;20424;-69
2021/04/29 08:29:20;;;;;;;17.77;12.83;;;;;;;;;;5082492;28;20557;-70
2021/04/29 08:31:45;;;;;;;15.57;12.03;;;;;;;;;;5087155;28;20196;-70
2021/04/29 08:34:10;;;;;;;13.40;11.60;;;;;;;;;;5081829;28;20264;-69
2021/04/29 08:36:36;;;;;;;17.73;12.27;;;;;;;;;;5085791;28;20186;-69
2021/04/29 08:39:03;;;;;;;13.83;12.37;;;;;;;;;;5085913;28;20184;-70
2021/04/29 08:41:29;;;;;;;15.77;12.30;;;;;;;;;;5077652;28;20284;-69
2021/04/29 08:43:54;;;;;;;13.00;11.60;;;;;;;;;;5084376;28;20171;-70
2021/04/29 08:46:20;;;;;;;15.07;11.33;;;;;;;;;;5087060;28;20187;-70
2021/04/29 08:48:45;;;;;;;14.40;11.83;;;;;;;;;;5079666;28;20176;-70
2021/04/29 08:51:10;;;;;;;16.93;11.87;;;;;;;;;;5086600;28;20203;-70
2021/04/29 08:53:36;;;;;;;13.77;12.27;;;;;;;;;;5090083;28;20183;-70
2021/04/29 08:56:01;;;;;;;16.10;12.50;;;;;;;;;;5092465;28;20177;-70
2021/04/29 08:58:26;;;;;;;13.70;10.93;;;;;;;;;;5083730;28;20316;-70
2021/04/29 09:01:02;;;;;;;15.37;12.47;;;;;;;;;;5081966;28;20578;-70
2021/04/29 09:03:28;;;;;;;19.67;11.30;;;;;;;;;;5082209;28;20199;-69
2021/04/29 09:05:57;;;;;;;15.50;12.33;;;;;;;;;;5084212;28;20175;-70
2021/04/29 09:08:26;;;;;;;13.20;10.63;;;;;;;;;;5083027;28;20180;-70
2021/04/29 09:10:51;;;;;;;13.43;11.50;;;;;;;;;;5085988;28;20191;-70
2021/04/29 09:13:17;;;;;;;13.70;11.20;;;;;;;;;;5086058;28;20247;-70
2021/04/29 09:15:43;;;;;;;15.90;12.13;;;;;;;;;;5084332;28;20230;-69
2021/04/29 09:18:13;;;;;;;12.77;10.40;;;;;;;;;;5083587;28;20180;-70
2021/04/29 09:20:49;;;;;;;14.47;11.43;;;;;;;;;;5088322;28;20647;-70
2021/04/29 09:23:18;;;;;;;15.90;12.27;;;;;;;;;;5086104;28;20627;-69
2021/04/29 09:25:50;;;;;;;15.03;11.47;;;;;;;;;;5077496;28;20188;-70
2021/04/29 09:28:15;;;;;;;14.57;11.47;;;;;;;;;;5084778;28;20196;-70
2021/04/29 09:30:43;;;;;;;15.43;11.67;;;;;;;;;;5081058;28;20251;-69
2021/04/29 09:33:08;;;;;;;12.93;11.00;;;;;;;;;;5082462;28;20176;-70
2021/04/29 09:35:37;;;;;;;14.53;12.00;;;;;;;;;;5079761;28;20199;-69
2021/04/29 09:38:08;;;;;;;15.23;13.03;;;;;;;;;;5085841;28;20395;-69
2021/04/29 09:40:36;;;;;;;15.07;11.07;;;;;;;;;;5072949;28;20534;-70
2021/04/29 09:43:01;;;;;;;14.00;11.20;;;;;;;;;;5085391;28;20202;-69
2021/04/29 09:45:34;;;;;;;17.87;12.87;;;;;;;;;;5080009;28;20191;-70
2021/04/29 09:48:03;;;;;;;15.17;12.30;;;;;;;;;;5083395;28;20165;-69
2021/04/29 09:50:30;;;;;;;14.47;12.13;;;;;;;;;;5084147;28;20172;-70
2021/04/29 09:53:02;;;;;;;17.93;11.93;;;;;;;;;;5080179;28;20214;-70
2021/04/29 09:55:29;;;;;;;17.60;12.87;;;;;;;;;;5078512;28;20234;-70
2021/04/29 09:58:30;;;;;;;15.60;12.13;;;;;;;;;;5084239;28;20535;-69
2021/04/29 10:00:55;;;;;;;19.17;11.83;;;;;;;;;;5074672;28;20212;-69
2021/04/29 10:03:20;;;;;;;17.03;13.03;;;;;;;;;;5078973;28;20319;-70
2021/04/29 10:05:50;;;;;;;16.73;13.67;;;;;;;;;;5086657;28;20200;-70
2021/04/29 10:08:16;;;;;;;15.13;12.70;;;;;;;;;;5089485;28;20231;-69
2021/04/29 10:10:42;;;;;;;15.83;11.87;;;;;;;;;;5087077;28;20179;-69
2021/04/29 10:13:07;;;;;;;17.83;13.70;;;;;;;;;;5080577;28;20654;-69
2021/04/29 10:15:38;;;;;;;18.47;13.73;;;;;;;;;;5088175;28;20189;-69
2021/04/29 10:18:03;;;;;;;19.70;14.17;;;;;;;;;;5074222;28;20169;-69
2021/04/29 10:20:30;;;;;;;20.50;15.63;;;;;;;;;;5072686;28;20180;-71
2021/04/29 10:22:56;;;;;;;18.20;13.83;;;;;;;;;;5075671;28;20334;-70
2021/04/29 10:25:31;;;;;;;18.17;14.07;;;;;;;;;;5082605;28;20267;-71
2021/04/29 10:27:57;;;;;;;16.70;13.57;;;;;;;;;;5086574;28;20176;-71
2021/04/29 10:30:32;;;;;;;17.97;14.17;;;;;;;;;;5082528;28;20176;-71
2021/04/29 10:32:57;;;;;;;18.07;13.33;;;;;;;;;;5073754;28;20193;-70
2021/04/29 10:35:23;;;;;;;18.53;13.37;;;;;;;;;;5087149;28;20192;-71
2021/04/29 10:38:02;;;;;;;17.77;13.97;;;;;;;;;;5081637;28;20185;-73
2021/04/29 10:40:31;;;;;;;19.87;14.07;;;;;;;;;;5082809;28;20626;-70
2021/04/29 10:42:57;;;;;;;18.90;14.30;;;;;;;;;;5073948;28;20208;-71
2021/04/29 10:45:22;;;;;;;17.27;13.47;;;;;;;;;;5087808;28;20719;-71
2021/04/29 10:47:47;;;;;;;19.73;15.33;;;;;;;;;;5078425;28;20196;-71
2021/04/29 10:50:15;;;;;;;18.10;14.27;;;;;;;;;;5084687;28;20180;-71
2021/04/29 10:52:50;;;;;;;17.63;13.93;;;;;;;;;;5085706;28;20204;-71
2021/04/29 10:55:22;;;;;;;16.43;13.17;;;;;;;;;;5084076;28;20194;-70
2021/04/29 10:57:47;;;;;;;17.03;13.17;;;;;;;;;;5089214;28;20172;-71
2021/04/29 11:00:12;;;;;;;16.43;12.63;;;;;;;;;;5082694;28;20191;-71
2021/04/29 11:02:38;;;;;;;16.03;12.87;;;;;;;;;;5082118;28;20208;-71
2021/04/29 11:05:04;;;;;;;13.67;11.50;;;;;;;;;;5086262;28;20522;-69
2021/04/29 11:07:30;;;;;;;16.23;13.60;;;;;;;;;;5082944;28;20630;-72
2021/04/29 11:10:00;;;;;;;20.13;13.70;;;;;;;;;;5083619;28;20176;-70
2021/04/29 11:12:39;;;;;;;15.00;12.90;;;;;;;;;;5085872;28;20249;-72
2021/04/29 11:15:05;;;;;;;21.70;14.77;;;;;;;;;;5084272;28;20178;-71
2021/04/29 11:17:30;;;;;;;16.03;13.73;;;;;;;;;;5078051;28;20177;-71
2021/04/29 11:19:56;;;;;;;18.77;13.70;;;;;;;;;;5084671;28;20199;-72
2021/04/29 11:22:33;;;;;;;16.97;14.00;;;;;;;;;;5083010;28;20203;-70
2021/04/29 11:24:59;;;;;;;16.23;13.43;;;;;;;;;;5087210;28;20168;-71
2021/04/29 11:27:31;;;;;;;22.97;14.03;;;;;;;;;;5085358;28;20662;-72
2021/04/29 11:29:58;;;;;;;19.33;13.63;;;;;;;;;;5089789;28;20202;-71
2021/04/29 11:32:23;;;;;;;15.83;13.13;;;;;;;;;;5095131;28;20188;-72
2021/04/29 11:34:49;;;;;;;14.67;13.07;;;;;;;;;;5084618;28;20196;-70
2021/04/29 11:37:14;;;;;;;18.10;14.07;;;;;;;;;;5087228;28;20556;-72
2021/04/29 11:39:40;;;;;;;15.30;12.83;;;;;;;;;;5091589;28;20188;-72
2021/04/29 11:42:05;;;;;;;15.90;13.33;;;;;;;;;;5091478;28;20239;-71
2021/04/29 11:44:31;;;;;;;18.03;13.40;;;;;;;;;;5091088;28;20194;-70
2021/04/29 11:46:58;;;;;;;15.30;13.40;;;;;;;;;;5085587;28;20173;-70
2021/04/29 11:49:24;;;;;;;17.20;12.57;;;;;;;;;;5088921;28;20589;-70
2021/04/29 11:51:50;;;;;;;16.17;13.90;;;;;;;;;;5088944;28;20201;-71
2021/04/29 11:54:17;;;;;;;18.17;12.70;;;;;;;;;;5083442;28;20203;-70
2021/04/29 11:56:47;;;;;;;19.53;13.03;;;;;;;;;;5081879;28;20184;-70
2021/04/29 11:59:13;;;;;;;17.67;12.70;;;;;;;;;;5080969;28;20188;-71
2021/04/29 12:01:38;;;;;;;17.60;12.30;;;;;;;;;;5082451;28;20606;-70
2021/04/29 12:04:15;;;;;;;17.10;12.93;;;;;;;;;;5085804;28;20234;-69
2021/04/29 12:06:53;;;;;;;17.20;12.07;;;;;;;;;;5088539;28;20168;-69
2021/04/29 12:09:19;;;;;;;16.87;12.87;;;;;;;;;;5080679;28;20182;-70
2021/04/29 12:11:44;;;;;;;19.00;12.87;;;;;;;;;;5081368;28;20287;-69
2021/04/29 12:14:12;;;;;;;17.07;13.00;;;;;;;;;;5083431;28;20555;-70
2021/04/29 12:16:37;;;;;;;15.57;11.87;;;;;;;;;;5079836;28;20547;-70
2021/04/29 12:19:03;;;;;;;14.97;11.27;;;;;;;;;;5083302;28;20222;-70
2021/04/29 12:21:28;;;;;;;18.17;10.60;;;;;;;;;;5088470;28;20192;-69
2021/04/29 12:24:00;;;;;;;16.30;10.73;;;;;;;;;;5091069;28;20301;-70
2021/04/29 12:26:41;;;;;;;15.63;12.00;;;;;;;;;;5082276;28;20230;-69
2021/04/29 12:29:08;;;;;;;14.97;10.50;;;;;;;;;;5082688;28;20184;-70
2021/04/29 12:31:34;;;;;;;14.33;10.37;;;;;;;;;;5084860;28;20207;-69
2021/04/29 12:34:02;;;;;;;23.10;12.40;;;;;;;;;;5085823;28;20574;-69
2021/04/29 12:36:27;;;;;;;13.27;10.00;;;;;;;;;;5085394;28;20199;-69
2021/04/29 12:38:53;;;;;;;14.57;9.57;;;;;;;;;;5084477;28;20193;-70
2021/04/29 12:41:18;;;;;;;16.23;9.77;;;;;;;;;;5084438;28;20211;-70
2021/04/29 12:43:54;;;;;;;12.17;9.27;;;;;;;;;;5084858;28;20176;-69
2021/04/29 12:46:28;;;;;;;16.17;9.17;;;;;;;;;;5083374;28;20186;-69
2021/04/29 12:48:53;;;;;;;16.53;11.07;;;;;;;;;;5081019;28;20196;-70
2021/04/29 12:51:20;;;;;;;13.10;9.03;;;;;;;;;;5081438;28;20224;-69
2021/04/29 12:53:51;;;;;;;12.73;8.20;;;;;;;;;;5086818;28;20199;-70
2021/04/29 12:56:23;;;;;;;13.37;7.87;;;;;;;;;;5086339;28;20175;-70
2021/04/29 12:58:49;;;;;;;14.63;8.23;;;;;;;;;;5087506;28;20187;-68
2021/04/29 13:01:18;;;;;;;15.10;8.20;;;;;;;;;;5081263;28;20382;-69
2021/04/29 13:03:43;;;;;;;14.13;8.20;;;;;;;;;;5085668;28;20181;-70
2021/04/29 13:06:10;;;;;;;11.97;7.83;;;;;;;;;;5088181;28;20538;-70
2021/04/29 13:08:47;;;;;;;13.97;8.97;;;;;;;;;;5082731;28;20562;-71
2021/04/29 13:11:12;;;;;;;13.67;9.33;;;;;;;;;;5091102;28;20204;-69
2021/04/29 13:13:37;;;;;;;13.73;8.83;;;;;;;;;;5081375;28;20646;-73
2021/04/29 13:16:02;;;;;;;14.13;9.13;;;;;;;;;;5076934;28;20218;-70
2021/04/29 13:18:28;;;;;;;19.67;9.20;;;;;;;;;;5075662;28;20188;-71
2021/04/29 13:20:53;;;;;;;17.67;9.03;;;;;;;;;;5083528;28;20210;-70
2021/04/29 13:23:20;;;;;;;11.03;8.30;;;;;;;;;;5087626;28;20204;-69
2021/04/29 13:25:45;;;;;;;14.13;8.43;;;;;;;;;;5086154;28;20224;-69
2021/04/29 13:28:11;;;;;;;12.30;8.93;;;;;;;;;;5085858;28;20591;-72
2021/04/29 13:30:36;;;;;;;11.23;7.70;;;;;;;;;;5080117;28;20230;-73
2021/04/29 13:33:01;;;;;;;10.43;8.20;;;;;;;;;;5080152;28;20253;-69
2021/04/29 13:35:26;;;;;;;12.57;7.63;;;;;;;;;;5075842;28;20496;-71
2021/04/29 13:37:57;;;;;;;13.90;7.83;;;;;;;;;;5081688;28;20595;-71
2021/04/29 13:40:23;;;;;;;15.43;8.40;;;;;;;;;;5079615;28;20192;-71
2021/04/29 13:42:49;;;;;;;13.40;8.50;;;;;;;;;;5075162;28;20197;-70
2021/04/29 13:45:14;;;;;;;15.20;8.00;;;;;;;;;;5077266;28;20658;-70
2021/04/29 13:47:39;;;;;;;9.63;6.67;;;;;;;;;;5077080;28;20184;-72
2021/04/29 13:50:05;;;;;;;10.93;5.83;;;;;;;;;;5072447;28;20192;-70
2021/04/29 13:52:30;;;;;;;14.07;6.30;;;;;;;;;;5073982;28;20196;-72
2021/04/29 13:54:55;;;;;;;12.63;6.13;;;;;;;;;;5077153;28;20569;-72
2021/04/29 13:57:20;;;;;;;10.57;6.43;;;;;;;;;;5073435;28;20702;-72
2021/04/29 13:59:46;;;;;;;11.30;5.73;;;;;;;;;;5075218;28;20639;-72
2021/04/29 14:02:13;;;;;;;11.20;6.10;;;;;;;;;;5074936;28;20236;-71
2021/04/29 14:04:38;;;;;;;10.67;6.30;;;;;;;;;;5073604;28;20216;-71
2021/04/29 14:07:03;;;;;;;14.10;6.80;;;;;;;;;;5080740;28;20208;-72
2021/04/29 14:09:28;;;;;;;7.63;5.40;;;;;;;;;;5078069;28;20630;-71
2021/04/29 14:11:54;;;;;;;9.43;5.10;;;;;;;;;;5075856;28;20196;-72
2021/04/29 14:14:19;;;;;;;8.90;5.87;;;;;;;;;;5073726;28;20234;-71
2021/04/29 14:16:45;;;;;;;8.57;5.13;;;;;;;;;;5075623;28;20200;-71